Kezdőlap
METAR-TAF:

METAR-TAF

Repülőterek :

Sanghaj-Putungi nemzetközi repülőtér

Sanghaj-Pudong, Kína

földrajzi szélesség: 31-07N, földrajzi hosszúság: 121-46E, magasság: 4 m

Jelenlegi meteorológiai megfigyelések

A jelentés 26 perccel ezelõtt készült, 21:30 UTC
Különbözõ irányokból fújó szél 2 kt
Hőmérséklet 11°C
Páratartalom 82%
Légköri nyomás 1022 hPa
Látótávolság 10 km, vagy több
felhőtlen 1500 m magasságban, és nincs gomolyfelhõ

METAR: ZSPD 132130Z VRB01MPS CAVOK 11/08 Q1022 NOSIG

Idő: 05:56 (21:56 UTC)

Előrejelzés

A jelentés 6 órával és 45 perccel ezelõtt készült, 15:11 UTC
Az előrejelzés 13-én 18 óra UTC és 14-én 18 óra UTC között érvényes
Északkeleti szél 8 kt
Látótávolság: 6000 m
Szórványos felhőzet 2000 lábon

TAF: ZSPD 131511Z 1318/1418 04004MPS 6000 SCT020 TX18/1406Z TN11/1321Z

Meteorológiai megfigyelések és előrejelzések több, mint 4000 repülőtéren (METAR és TAF jelentéseket).

A térképen piros és sárga pontok jelzik az elérhető meteorológiai állomásokat.

Mozgassa az egeret a pont fölött, hogy megjelenjen az állomás neve.

Azután kattintson az időjárási megfigyelések és előrejelzések megtekintéséhez.

A térkép megváltoztatása: kattintson a fekete keresztel jelölt zöld gombra ráközelítéshez, a vonallal jelölt zöld gombra távolításhoz, vagy a zöld nyilakra a szomszédos térképek eléréséhez.


METAR-TAF: